Time;durP1;ratioP1;P1;durP2;ratioP2;P2;SDS_P1;SDS_P2;PMS_P1;PMS_P2;Temp;Humidity;BMP_temperature;BMP_pressure;BME280_temperature;BME280_humidity;BME280_pressure;Samples;Min_cycle;Max_cycle;Signal;HPM_P1;HPM_P2
2023/06/25 04:22:34;;;;;;;3.00;2.50;;;;;;;16.00;100.00;100482.97;5089572;28;20751;-67
2023/06/25 04:25:00;;;;;;;4.20;2.65;;;;;;;16.06;95.85;100471.44;5088311;28;20123;-68
2023/06/25 04:27:25;;;;;;;3.83;2.42;;;;;;;16.20;91.90;100475.78;5088155;28;20479;-68
2023/06/25 04:29:52;;;;;;;3.97;2.85;;;;;;;16.30;91.10;100472.72;5087837;28;20033;-68
2023/06/25 04:32:17;;;;;;;2.80;2.20;;;;;;;16.43;89.82;100477.25;5088102;28;20402;-68
2023/06/25 04:34:43;;;;;;;2.80;2.35;;;;;;;16.55;89.33;100470.22;5088078;28;20436;-68
2023/06/25 04:37:09;;;;;;;3.40;2.70;;;;;;;16.67;88.73;100475.81;5087978;28;20036;-68
2023/06/25 04:39:35;;;;;;;3.15;2.35;;;;;;;16.72;87.91;100479.56;5087630;28;20500;-68
2023/06/25 04:42:01;;;;;;;3.28;2.45;;;;;;;16.81;88.02;100480.19;5087882;28;20028;-68
2023/06/25 04:44:27;;;;;;;4.35;2.58;;;;;;;16.93;86.54;100483.06;5089114;28;20047;-68
2023/06/25 04:46:54;;;;;;;3.53;2.28;;;;;;;16.98;87.43;100480.59;5087708;28;20032;-67
2023/06/25 04:49:20;;;;;;;2.53;1.98;;;;;;;17.07;86.52;100484.69;5087531;28;20046;-68
2023/06/25 04:51:45;;;;;;;3.03;2.47;;;;;;;17.16;85.92;100483.47;5087826;28;20131;-68
2023/06/25 04:54:11;;;;;;;2.60;1.95;;;;;;;17.25;85.51;100481.34;5089320;28;20039;-68
2023/06/25 04:56:37;;;;;;;2.63;2.05;;;;;;;17.32;85.04;100484.84;5088870;28;20036;-68
2023/06/25 04:59:02;;;;;;;3.40;2.10;;;;;;;17.39;84.59;100480.28;5088558;28;20155;-68
2023/06/25 05:01:28;;;;;;;2.78;2.30;;;;;;;17.47;83.59;100477.34;5088742;28;20039;-68
2023/06/25 05:03:53;;;;;;;3.17;2.38;;;;;;;17.54;83.07;100478.16;5088869;28;20397;-68
2023/06/25 05:06:19;;;;;;;3.05;2.10;;;;;;;17.61;83.11;100481.66;5088710;28;20085;-68
2023/06/25 05:08:44;;;;;;;3.15;2.30;;;;;;;17.70;82.52;100484.09;5088464;28;20094;-68
2023/06/25 05:11:09;;;;;;;4.68;2.38;;;;;;;17.79;83.10;100490.91;5088652;28;20024;-67
2023/06/25 05:13:35;;;;;;;3.03;2.22;;;;;;;17.85;82.65;100490.06;5088602;28;20447;-68
2023/06/25 05:16:01;;;;;;;3.00;2.53;;;;;;;17.93;81.75;100486.28;5088425;28;20129;-68
2023/06/25 05:18:26;;;;;;;2.17;1.92;;;;;;;18.00;81.90;100495.19;5088202;28;20502;-68
2023/06/25 05:20:52;;;;;;;4.95;2.97;;;;;;;18.04;81.40;100491.81;5088265;28;20032;-68
2023/06/25 05:23:17;;;;;;;3.00;2.38;;;;;;;18.09;81.07;100493.88;5088466;28;20489;-68
2023/06/25 05:25:43;;;;;;;2.72;2.13;;;;;;;18.19;80.72;100494.22;5088396;28;20408;-67
2023/06/25 05:28:08;;;;;;;2.75;2.20;;;;;;;18.24;80.32;100486.31;5088321;28;20382;-68
2023/06/25 05:30:33;;;;;;;2.78;2.00;;;;;;;18.31;80.06;100487.09;5087955;28;20534;-68
2023/06/25 05:32:59;;;;;;;3.85;2.50;;;;;;;18.37;79.00;100493.47;5080014;28;20032;-67
2023/06/25 05:35:26;;;;;;;3.35;2.25;;;;;;;18.40;77.65;100491.19;5074717;28;20051;-68
2023/06/25 05:37:52;;;;;;;3.70;2.50;;;;;;;18.48;78.69;100482.00;5074608;28;19920;-68
2023/06/25 05:40:17;;;;;;;3.78;2.50;;;;;;;18.55;78.88;100493.56;5074337;28;20512;-54
2023/06/25 05:42:43;;;;;;;3.28;2.42;;;;;;;18.64;77.64;100492.22;5074548;28;20063;-52
2023/06/25 05:45:09;;;;;;;3.15;2.20;;;;;;;18.70;76.52;100494.09;5074368;28;20032;-54
2023/06/25 05:47:34;;;;;;;3.63;2.70;;;;;;;18.80;78.10;100495.47;5074501;28;20075;-55
2023/06/25 05:50:00;;;;;;;3.17;2.50;;;;;;;18.88;76.59;100498.72;5074324;28;20040;-52
2023/06/25 05:52:26;;;;;;;3.15;2.60;;;;;;;18.99;76.44;100497.16;5074292;28;20123;-50
2023/06/25 05:54:51;;;;;;;3.30;2.45;;;;;;;19.06;75.26;100494.41;5074406;28;20405;-52
2023/06/25 05:57:17;;;;;;;4.43;2.72;;;;;;;19.25;74.90;100499.59;5074169;28;20079;-51
2023/06/25 05:59:42;;;;;;;3.50;2.40;;;;;;;19.37;72.98;100497.00;5073971;28;20056;-51
2023/06/25 06:02:08;;;;;;;3.25;2.50;;;;;;;19.39;74.25;100492.19;5074182;28;20078;-49
2023/06/25 06:04:34;;;;;;;4.63;2.75;;;;;;;19.44;70.68;100494.22;5074176;28;20055;-51
2023/06/25 06:07:00;;;;;;;3.90;2.95;;;;;;;19.59;71.74;100493.84;5073992;28;20040;-53
2023/06/25 06:09:25;;;;;;;4.20;2.50;;;;;;;19.65;73.09;100491.06;5073801;28;20078;-49
2023/06/25 06:11:50;;;;;;;4.03;2.88;;;;;;;19.69;74.04;100486.03;5073889;28;20136;-51
2023/06/25 06:14:16;;;;;;;3.80;2.80;;;;;;;19.70;71.86;100491.22;5073967;28;20044;-49
2023/06/25 06:16:41;;;;;;;4.75;3.42;;;;;;;19.79;72.47;100484.44;5073893;28;20044;-51
2023/06/25 06:19:07;;;;;;;3.97;3.00;;;;;;;19.85;72.30;100495.41;5073571;28;20371;-51
2023/06/25 06:21:32;;;;;;;3.28;2.50;;;;;;;19.89;70.51;100496.59;5072671;28;20516;-50
2023/06/25 06:23:57;;;;;;;3.60;2.60;;;;;;;19.93;70.70;100497.78;5074824;28;20036;-50
2023/06/25 06:26:23;;;;;;;2.83;1.98;;;;;;;19.97;70.79;100493.56;5073381;28;20485;-53
2023/06/25 06:28:48;;;;;;;3.40;2.50;;;;;;;20.07;69.47;100488.44;5073255;28;20036;-50
2023/06/25 06:31:13;;;;;;;3.65;2.70;;;;;;;20.15;68.49;100487.28;5082206;28;20028;-51
2023/06/25 06:33:39;;;;;;;2.95;2.40;;;;;;;20.16;69.24;100489.78;5093771;28;20040;-53
2023/06/25 06:36:04;;;;;;;2.97;2.67;;;;;;;20.23;69.17;100493.19;5093687;28;20039;-51
2023/06/25 06:38:30;;;;;;;3.78;2.80;;;;;;;20.32;68.92;100491.81;5093452;28;20548;-51
2023/06/25 06:40:55;;;;;;;4.57;2.72;;;;;;;20.36;69.58;100485.94;5093556;28;20382;-52
2023/06/25 06:43:20;;;;;;;3.83;2.33;;;;;;;20.41;69.20;100492.31;5093363;28;20139;-51
2023/06/25 06:45:46;;;;;;;2.80;2.40;;;;;;;20.53;69.07;100485.03;5082771;28;20136;-51
2023/06/25 06:48:11;;;;;;;3.17;2.30;;;;;;;20.61;69.48;100481.19;5073209;28;20075;-51
2023/06/25 06:50:37;;;;;;;3.70;2.38;;;;;;;20.76;68.20;100488.84;5072451;28;20123;-50
2023/06/25 06:53:02;;;;;;;2.95;2.35;;;;;;;20.86;69.59;100497.19;5073252;28;20032;-51
2023/06/25 06:55:28;;;;;;;4.13;2.90;;;;;;;20.98;68.78;100486.38;5072894;28;20036;-52
2023/06/25 06:57:53;;;;;;;3.70;2.33;;;;;;;21.08;67.79;100495.56;5073019;28;20118;-51
2023/06/25 07:00:19;;;;;;;3.35;2.65;;;;;;;21.21;67.99;100494.50;5071959;28;20036;-53
2023/06/25 07:02:45;;;;;;;3.95;2.83;;;;;;;21.36;64.72;100491.31;5071662;28;20500;-52
2023/06/25 07:05:11;;;;;;;4.55;2.35;;;;;;;21.54;64.65;100479.50;5075908;28;20055;-51
2023/06/25 07:07:37;;;;;;;4.05;3.20;;;;;;;21.63;62.78;100475.34;5079809;28;20064;-52
2023/06/25 07:10:02;;;;;;;4.15;2.95;;;;;;;21.77;61.88;100484.84;5072471;28;20370;-52
2023/06/25 07:12:28;;;;;;;3.97;2.78;;;;;;;21.82;63.08;100478.72;5072722;28;20052;-53
2023/06/25 07:14:53;;;;;;;3.70;2.72;;;;;;;21.90;61.72;100476.44;5072762;28;20086;-53
2023/06/25 07:17:19;;;;;;;4.13;3.03;;;;;;;21.99;61.77;100473.34;5072716;28;20060;-52
2023/06/25 07:19:44;;;;;;;3.67;2.78;;;;;;;22.18;61.21;100470.22;5067510;28;20503;-53
2023/06/25 07:22:09;;;;;;;5.18;3.42;;;;;;;22.26;60.10;100463.56;5072332;28;20032;-52
2023/06/25 07:24:35;;;;;;;5.57;3.75;;;;;;;22.38;59.07;100469.75;5072778;28;20062;-51
2023/06/25 07:27:00;;;;;;;5.35;3.83;;;;;;;22.48;59.79;100463.66;5072359;28;20063;-52
2023/06/25 07:29:27;;;;;;;3.42;2.35;;;;;;;22.64;59.69;100467.44;5072230;28;20466;-52
2023/06/25 07:31:53;;;;;;;3.78;3.28;;;;;;;22.83;58.55;100468.00;5072465;28;20040;-52
2023/06/25 07:34:18;;;;;;;4.63;2.45;;;;;;;22.95;57.92;100464.16;5072326;28;20040;-53
2023/06/25 07:36:44;;;;;;;4.43;3.00;;;;;;;23.08;57.10;100471.09;5072345;28;20040;-53
2023/06/25 07:39:20;;;;;;;4.80;3.00;;;;;;;23.23;55.74;100470.50;5072028;28;20068;-52
2023/06/25 07:41:45;;;;;;;3.20;2.85;;;;;;;23.40;55.31;100471.25;5052340;28;20087;-56
2023/06/25 07:44:10;;;;;;;3.22;2.80;;;;;;;23.53;53.90;100462.72;5085931;28;20439;-60
2023/06/25 07:46:36;;;;;;;4.00;3.13;;;;;;;23.55;53.74;100466.03;5083741;28;20068;-52
2023/06/25 07:49:01;;;;;;;4.38;2.70;;;;;;;23.72;53.47;100459.72;5063217;28;20040;-52
2023/06/25 07:51:26;;;;;;;3.85;2.80;;;;;;;23.82;53.08;100460.66;5062134;28;20021;-52
2023/06/25 07:53:52;;;;;;;6.07;2.78;;;;;;;23.96;51.80;100452.91;5062954;28;20396;-53
2023/06/25 07:56:17;;;;;;;4.07;2.78;;;;;;;24.12;52.33;100456.59;5060688;28;20037;-52
2023/06/25 07:58:42;;;;;;;3.67;3.00;;;;;;;24.22;52.66;100459.44;5061353;28;20040;-53
2023/06/25 08:01:08;;;;;;;4.15;3.00;;;;;;;24.35;50.03;100463.66;5071142;28;20066;-54
2023/06/25 08:03:33;;;;;;;3.22;2.80;;;;;;;24.43;51.06;100465.06;5072089;28;20123;-55
2023/06/25 08:05:59;;;;;;;4.40;2.83;;;;;;;24.63;51.01;100468.78;5072018;28;20411;-53
2023/06/25 08:08:24;;;;;;;4.30;2.90;;;;;;;24.73;50.31;100459.06;5071797;28;20128;-52
2023/06/25 08:10:51;;;;;;;3.85;2.65;;;;;;;24.80;50.18;100463.19;5071749;28;20050;-57
2023/06/25 08:13:17;;;;;;;;;;;;;;;24.91;47.79;100458.66;5072706;28;20456;-54
2023/06/25 08:15:42;;;;;;;3.10;2.60;;;;;;;25.09;49.31;100460.13;5071946;28;19963;-54
2023/06/25 08:18:07;;;;;;;5.75;3.05;;;;;;;25.09;48.56;100457.41;5071697;28;20060;-53
2023/06/25 08:20:33;;;;;;;2.85;2.35;;;;;;;25.13;48.10;100461.25;5060580;28;20460;-63
2023/06/25 08:22:58;;;;;;;3.63;2.90;;;;;;;25.19;48.06;100454.75;5051835;28;20094;-63
2023/06/25 08:25:25;;;;;;;3.50;2.63;;;;;;;25.42;46.67;100448.00;5051774;28;20037;-64
2023/06/25 08:27:51;;;;;;;4.60;2.77;;;;;;;25.64;45.17;100447.84;5051854;28;20056;-65
2023/06/25 08:30:17;;;;;;;3.25;2.78;;;;;;;25.86;43.04;100445.72;5051318;28;20037;-63
2023/06/25 08:32:42;;;;;;;3.38;2.42;;;;;;;25.85;41.68;100444.09;5051738;28;20094;-64
2023/06/25 08:35:08;;;;;;;4.20;2.92;;;;;;;26.00;40.76;100437.84;5051652;28;20033;-63
2023/06/25 08:37:34;;;;;;;2.60;1.98;;;;;;;26.19;42.79;100438.13;5051682;28;20655;-64
2023/06/25 08:39:59;;;;;;;4.18;2.60;;;;;;;26.43;41.74;100444.72;5051215;28;20068;-63
2023/06/25 08:42:26;;;;;;;3.70;2.80;;;;;;;26.59;40.49;100453.72;5051629;28;20037;-63
2023/06/25 08:44:52;;;;;;;4.00;2.65;;;;;;;26.74;39.71;100448.25;5051707;28;20599;-63
2023/06/25 08:47:19;;;;;;;4.60;2.75;;;;;;;26.84;39.99;100443.88;5059554;28;20048;-64
2023/06/25 08:49:48;;;;;;;;;;;;;;;27.26;38.52;100452.53;5070189;28;20040;-64
2023/06/25 08:52:14;;;;;;;3.88;2.72;;;;;;;27.02;37.51;100441.38;5071510;28;19916;-63
2023/06/25 08:54:40;;;;;;;3.42;2.78;;;;;;;27.16;39.34;100443.53;5071639;28;20090;-63
2023/06/25 08:57:07;;;;;;;3.53;2.55;;;;;;;27.14;37.44;100435.63;5071596;28;20040;-63
2023/06/25 08:59:33;;;;;;;3.13;2.75;;;;;;;27.39;36.22;100439.38;5071234;28;20032;-64
2023/06/25 09:01:59;;;;;;;4.53;2.75;;;;;;;27.58;36.64;100438.44;5071542;28;20032;-64
2023/06/25 09:04:24;;;;;;;5.18;2.60;;;;;;;27.63;36.21;100437.59;5071578;28;20148;-64
2023/06/25 09:06:50;;;;;;;5.30;2.97;;;;;;;27.90;34.75;100425.41;5071360;28;20032;-63
2023/06/25 09:09:15;;;;;;;4.00;2.75;;;;;;;28.22;33.17;100422.19;5071124;28;20155;-63
2023/06/25 09:11:41;;;;;;;3.85;2.60;;;;;;;28.37;34.02;100428.38;5065898;28;20036;-63
2023/06/25 09:14:06;;;;;;;3.67;2.90;;;;;;;28.57;33.50;100423.84;5066698;28;20028;-64
2023/06/25 09:16:32;;;;;;;4.47;2.80;;;;;;;28.45;32.06;100426.13;5074935;28;20048;-65
2023/06/25 09:19:00;;;;;;;4.95;3.10;;;;;;;28.47;33.87;100415.69;5074704;28;20041;-63
2023/06/25 09:21:37;;;;;;;3.72;2.72;;;;;;;28.68;32.35;100419.88;5074841;28;20561;-63
2023/06/25 09:24:16;;;;;;;4.60;2.78;;;;;;;28.74;32.05;100415.97;5072330;28;20547;-63
2023/06/25 09:26:49;;;;;;;4.38;2.80;;;;;;;28.89;32.20;100420.50;5074719;28;20040;-64
2023/06/25 09:29:17;;;;;;;4.30;2.67;;;;;;;28.91;30.83;100410.88;5074558;28;20048;-64
2023/06/25 09:31:43;;;;;;;4.18;2.67;;;;;;;28.87;31.64;100406.25;5071736;28;20485;-62
2023/06/25 09:34:10;;;;;;;5.28;3.00;;;;;;;29.08;30.50;100410.44;5074788;28;20036;-67
2023/06/25 09:36:36;;;;;;;4.88;2.45;;;;;;;29.54;28.54;100409.03;5074757;28;20410;-63
2023/06/25 09:39:03;;;;;;;4.90;2.88;;;;;;;29.23;29.30;100398.47;5074406;28;20044;-64
2023/06/25 09:41:31;;;;;;;3.97;2.85;;;;;;;29.38;29.14;100403.72;5074672;28;20036;-63
2023/06/25 09:44:00;;;;;;;3.92;2.25;;;;;;;29.79;29.83;100399.63;5074585;28;20036;-64
2023/06/25 09:46:26;;;;;;;8.73;3.42;;;;;;;29.73;29.22;100401.63;5074385;28;20511;-64
2023/06/25 09:48:56;;;;;;;3.63;2.58;;;;;;;30.06;28.34;100401.66;5074216;28;20119;-65
2023/06/25 09:51:28;;;;;;;5.20;2.85;;;;;;;29.88;27.39;100392.38;5074358;28;20150;-63
2023/06/25 09:53:56;;;;;;;3.65;2.42;;;;;;;30.27;27.66;100389.28;5066187;28;20091;-64
2023/06/25 09:56:22;;;;;;;3.72;2.63;;;;;;;30.08;28.32;100385.72;5064873;28;20059;-65
2023/06/25 09:58:49;;;;;;;3.57;2.30;;;;;;;30.23;27.44;100383.56;5063311;28;20028;-65
2023/06/25 10:01:15;;;;;;;6.73;2.87;;;;;;;30.53;27.30;100390.47;5063452;28;20403;-65
2023/06/25 10:03:42;;;;;;;4.00;2.72;;;;;;;30.30;26.30;100383.19;5064999;28;20033;-65
2023/06/25 10:06:08;;;;;;;3.47;2.33;;;;;;;30.78;27.43;100382.91;5063430;28;20491;-64
2023/06/25 10:08:36;;;;;;;4.00;2.65;;;;;;;30.86;27.14;100381.38;5055149;28;20060;-64
2023/06/25 10:11:05;;;;;;;5.10;2.97;;;;;;;30.74;27.92;100379.13;5060771;28;20036;-64
2023/06/25 10:13:30;;;;;;;4.15;2.85;;;;;;;30.94;26.77;100378.72;5065531;28;20041;-64
2023/06/25 10:16:01;;;;;;;4.43;2.88;;;;;;;30.94;28.66;100375.97;5069933;28;20025;-64
2023/06/25 10:18:27;;;;;;;4.05;2.72;;;;;;;31.29;27.54;100379.91;5073398;28;20044;-64
2023/06/25 10:20:57;;;;;;;5.25;2.97;;;;;;;31.55;26.26;100373.84;5073832;28;20170;-63
2023/06/25 10:23:24;;;;;;;4.55;2.90;;;;;;;31.76;25.75;100371.47;5073668;28;20028;-62
2023/06/25 10:25:56;;;;;;;3.80;2.75;;;;;;;31.71;26.02;100366.88;5073815;28;20037;-61
2023/06/25 10:28:34;;;;;;;5.10;3.03;;;;;;;31.68;25.23;100370.25;5073536;28;20127;-62
2023/06/25 10:31:12;;;;;;;5.65;3.22;;;;;;;31.72;25.86;100362.19;5073658;28;20036;-62
2023/06/25 10:33:38;;;;;;;4.50;2.88;;;;;;;31.74;25.58;100354.41;5073659;28;20115;-62
2023/06/25 10:36:06;;;;;;;4.10;2.67;;;;;;;32.10;26.52;100366.22;5073534;28;20576;-62
2023/06/25 10:38:32;;;;;;;4.00;2.55;;;;;;;32.48;26.82;100357.56;5073169;28;20039;-62
2023/06/25 10:40:57;;;;;;;4.63;3.03;;;;;;;32.60;25.25;100355.03;5073557;28;20025;-63
2023/06/25 10:43:23;;;;;;;4.73;3.10;;;;;;;32.75;24.82;100356.53;5073479;28;20504;-62
2023/06/25 10:45:50;;;;;;;4.67;3.17;;;;;;;33.12;24.70;100348.88;5073349;28;20051;-61
2023/06/25 10:48:15;;;;;;;;;;;;;;;33.16;24.81;100355.38;5073595;28;20498;-63
2023/06/25 10:50:40;;;;;;;5.27;3.20;;;;;;;33.29;23.38;100353.63;5073118;28;19920;-62
2023/06/25 10:53:11;;;;;;;5.50;3.23;;;;;;;33.88;22.83;100351.22;5073281;28;20077;-63
2023/06/25 10:55:38;;;;;;;6.18;4.00;;;;;;;33.84;23.27;100344.72;5073077;28;20123;-62
2023/06/25 10:58:04;;;;;;;8.93;6.35;;;;;;;34.06;21.77;100344.56;5073177;28;20034;-63
2023/06/25 11:00:30;;;;;;;6.05;4.13;;;;;;;33.59;21.32;100346.38;5072795;28;20039;-64
2023/06/25 11:02:56;;;;;;;4.32;3.22;;;;;;;33.24;23.07;100345.47;5073075;28;20501;-63
2023/06/25 11:05:33;;;;;;;5.00;3.00;;;;;;;33.84;22.45;100333.66;5072967;28;20036;-63
2023/06/25 11:07:58;;;;;;;3.97;2.50;;;;;;;33.83;22.52;100334.81;5073014;28;20028;-62
2023/06/25 11:10:24;;;;;;;4.90;3.47;;;;;;;34.51;22.21;100330.31;5072710;28;20462;-64
2023/06/25 11:12:50;;;;;;;5.57;3.57;;;;;;;34.06;23.42;100327.16;5072737;28;20037;-63
2023/06/25 11:15:17;;;;;;;5.43;3.50;;;;;;;34.43;22.98;100323.69;5072765;28;20397;-64
2023/06/25 11:17:43;;;;;;;5.32;3.45;;;;;;;34.75;22.01;100305.59;5072584;28;20490;-64
2023/06/25 11:20:09;;;;;;;5.28;3.60;;;;;;;34.78;22.91;100327.09;5072162;28;20043;-63
2023/06/25 11:22:44;;;;;;;5.43;3.67;;;;;;;34.42;22.47;100326.75;5072408;28;20115;-62
2023/06/25 11:25:13;;;;;;;4.82;2.97;;;;;;;34.93;21.73;100320.19;5072532;28;20036;-63
2023/06/25 11:27:39;;;;;;;5.35;3.03;;;;;;;35.24;21.73;100311.50;5072639;28;20382;-63
2023/06/25 11:30:06;;;;;;;7.10;3.30;;;;;;;35.38;20.92;100314.00;5071624;28;20032;-64
2023/06/25 11:32:32;;;;;;;4.85;3.25;;;;;;;34.78;22.00;100304.16;5072407;28;20037;-63
2023/06/25 11:34:57;;;;;;;5.20;3.40;;;;;;;35.10;21.17;100308.22;5072319;28;20660;-63
2023/06/25 11:37:23;;;;;;;6.03;3.60;;;;;;;34.52;20.16;100302.31;5072453;28;20032;-64
2023/06/25 11:39:50;;;;;;;4.63;3.40;;;;;;;35.47;19.52;100309.22;5072055;28;20040;-63
2023/06/25 11:42:23;;;;;;;4.10;2.83;;;;;;;35.69;19.67;100308.06;5072285;28;20036;-63
2023/06/25 11:45:05;;;;;;;6.18;3.83;;;;;;;35.60;20.75;100302.63;5072306;28;20404;-63
2023/06/25 11:47:31;;;;;;;5.35;3.60;;;;;;;35.71;20.75;100293.88;5072135;28;20043;-63
2023/06/25 11:49:58;;;;;;;6.50;4.28;;;;;;;34.89;20.04;100293.50;5071957;28;20025;-63
2023/06/25 11:52:24;;;;;;;5.45;3.38;;;;;;;35.53;20.46;100304.31;5072171;28;20405;-63
2023/06/25 11:54:50;;;;;;;5.53;3.67;;;;;;;35.63;20.70;100301.13;5071867;28;20036;-62
2023/06/25 11:57:17;;;;;;;5.20;3.63;;;;;;;35.77;20.35;100292.50;5071475;28;20040;-64
2023/06/25 11:59:43;;;;;;;11.52;4.13;;;;;;;35.50;19.91;100297.50;5082762;28;20090;-63
2023/06/25 12:02:11;;;;;;;6.40;3.85;;;;;;;35.65;24.19;100292.47;5077200;28;20033;-56
2023/06/25 12:04:38;;;;;;;6.05;4.10;;;;;;;35.73;21.20;100292.38;5088477;28;20032;-60
2023/06/25 12:07:06;;;;;;;5.72;3.67;;;;;;;35.93;21.41;100279.69;5077512;28;20445;-60
2023/06/25 12:09:31;;;;;;;6.75;3.90;;;;;;;35.76;20.11;100291.72;5068847;28;20397;-61
2023/06/25 12:11:57;;;;;;;5.30;3.70;;;;;;;36.12;21.29;100279.91;5061899;28;20033;-61
2023/06/25 12:14:22;;;;;;;5.27;3.63;;;;;;;36.29;21.37;100272.56;5060806;28;20049;-61
2023/06/25 12:16:47;;;;;;;6.97;4.13;;;;;;;36.81;19.72;100267.13;5054585;28;20127;-61
2023/06/25 12:19:13;;;;;;;4.73;3.37;;;;;;;36.07;19.88;100271.84;5059476;28;20097;-62
2023/06/25 12:21:38;;;;;;;6.35;3.67;;;;;;;36.26;20.05;100257.44;5043687;28;20112;-61
2023/06/25 12:24:04;;;;;;;7.30;3.63;;;;;;;36.46;20.55;100261.28;5060619;28;20047;-61
2023/06/25 12:26:30;;;;;;;7.23;3.73;;;;;;;36.92;19.11;100264.72;5053623;28;20489;-61
2023/06/25 12:28:56;;;;;;;7.43;3.88;;;;;;;37.06;19.26;100261.56;5071598;28;20056;-62
2023/06/25 12:31:22;;;;;;;6.07;4.40;;;;;;;36.23;20.38;100263.66;5071006;28;20036;-62
2023/06/25 12:33:47;;;;;;;5.63;3.60;;;;;;;36.77;20.30;100255.13;5071736;28;20109;-63
2023/06/25 12:36:12;;;;;;;7.97;4.33;;;;;;;36.93;21.12;100253.28;5071635;28;20044;-60
2023/06/25 12:38:38;;;;;;;6.30;3.87;;;;;;;35.97;19.30;100247.34;5071460;28;20049;-62
2023/06/25 12:41:03;;;;;;;6.80;3.80;;;;;;;36.15;22.72;100243.22;5071671;28;20120;-61
2023/06/25 12:43:28;;;;;;;7.20;4.17;;;;;;;36.25;20.27;100241.13;5074088;28;20033;-63
2023/06/25 12:45:54;;;;;;;6.80;4.40;;;;;;;35.50;19.46;100236.56;5076036;28;20036;-61
2023/06/25 12:48:19;;;;;;;5.73;3.83;;;;;;;36.68;18.97;100244.16;5075493;28;20043;-61
2023/06/25 12:50:44;;;;;;;7.00;4.23;;;;;;;36.97;19.49;100241.47;5075784;28;20131;-62
2023/06/25 12:53:10;;;;;;;7.17;4.20;;;;;;;36.73;19.63;100232.00;5075645;28;20044;-62
2023/06/25 12:55:38;;;;;;;7.93;4.23;;;;;;;36.94;21.89;100238.22;5071875;28;20037;-60
2023/06/25 12:58:03;;;;;;;7.15;4.70;;;;;;;37.06;21.13;100234.63;5069792;28;20507;-62
2023/06/25 13:00:29;;;;;;;7.20;4.33;;;;;;;36.35;19.06;100233.16;5075090;28;20113;-63
2023/06/25 13:02:54;;;;;;;7.50;4.73;;;;;;;36.84;20.42;100233.16;5075405;28;20067;-63
2023/06/25 13:05:20;;;;;;;5.70;4.17;;;;;;;37.55;18.37;100228.09;5074082;28;20115;-63
2023/06/25 13:07:45;;;;;;;7.85;5.32;;;;;;;37.42;18.81;100219.81;5075202;28;20417;-61
2023/06/25 13:10:11;;;;;;;7.27;4.53;;;;;;;37.06;19.20;100222.72;5073768;28;20060;-63
2023/06/25 13:12:37;;;;;;;6.57;3.93;;;;;;;37.08;19.14;100225.94;5074680;28;20439;-63
2023/06/25 13:15:06;;;;;;;8.57;5.40;;;;;;;36.41;20.67;100220.72;5075157;28;20038;-63
2023/06/25 13:17:32;;;;;;;7.72;4.80;;;;;;;36.11;19.23;100213.75;5075139;28;20028;-63
2023/06/25 13:19:58;;;;;;;7.28;4.40;;;;;;;35.53;20.45;100207.38;5074797;28;20040;-63
2023/06/25 13:22:23;;;;;;;8.27;4.87;;;;;;;34.79;20.17;100203.41;5074941;28;20036;-63
2023/06/25 13:24:48;;;;;;;7.07;4.53;;;;;;;35.06;20.11;100204.84;5075055;28;20383;-62
2023/06/25 13:27:14;;;;;;;7.33;4.27;;;;;;;34.62;20.90;100204.34;5074974;28;20090;-63
2023/06/25 13:29:42;;;;;;;7.53;4.57;;;;;;;34.03;21.55;100197.94;5074618;28;20064;-61
2023/06/25 13:32:08;;;;;;;6.93;4.78;;;;;;;33.77;21.76;100187.78;5074803;28;20120;-63
2023/06/25 13:34:34;;;;;;;7.80;4.53;;;;;;;33.57;23.50;100188.50;5074832;28;20404;-62
2023/06/25 13:37:00;;;;;;;7.67;5.00;;;;;;;33.36;22.75;100189.16;5074800;28;20045;-61
2023/06/25 13:39:26;;;;;;;7.22;4.70;;;;;;;33.14;22.68;100181.88;5074398;28;20824;-63
2023/06/25 13:41:51;;;;;;;8.77;4.57;;;;;;;32.60;22.57;100183.25;5074619;28;20024;-63
2023/06/25 13:44:16;;;;;;;7.47;4.57;;;;;;;33.14;22.63;100184.63;5074677;28;20041;-61
2023/06/25 13:46:42;;;;;;;6.80;4.87;;;;;;;33.03;22.94;100174.25;5074471;28;20135;-62
2023/06/25 13:49:07;;;;;;;9.03;4.10;;;;;;;33.32;21.84;100181.84;5074287;28;20560;-61
2023/06/25 13:51:32;;;;;;;6.23;4.10;;;;;;;32.77;22.03;100176.97;5074428;28;20091;-62
2023/06/25 13:53:58;;;;;;;7.67;4.50;;;;;;;32.66;23.07;100171.75;5074019;28;20036;-64
2023/06/25 13:56:23;;;;;;;7.53;4.63;;;;;;;32.64;22.68;100173.22;5073158;28;20041;-63
2023/06/25 13:58:49;;;;;;;7.87;5.00;;;;;;;32.76;22.71;100169.84;5073698;28;20060;-63
2023/06/25 14:01:14;;;;;;;7.77;4.30;;;;;;;32.64;22.54;100174.03;5074393;28;20028;-64
2023/06/25 14:03:40;;;;;;;6.93;4.50;;;;;;;32.78;22.85;100167.56;5074298;28;20063;-63
2023/06/25 14:06:05;;;;;;;7.80;4.93;;;;;;;32.66;23.34;100170.94;5074202;28;20404;-63
2023/06/25 14:08:30;;;;;;;5.87;3.77;;;;;;;32.60;23.37;100173.06;5073943;28;20033;-63
2023/06/25 14:10:56;;;;;;;7.33;4.63;;;;;;;32.55;22.64;100159.44;5074280;28;20043;-62
2023/06/25 14:13:21;;;;;;;7.30;4.37;;;;;;;32.39;22.78;100159.06;5074031;28;20441;-63
2023/06/25 14:15:47;;;;;;;6.27;4.23;;;;;;;31.88;22.70;100163.25;5074116;28;20047;-63
2023/06/25 14:18:12;;;;;;;7.00;4.57;;;;;;;32.01;22.49;100161.50;5073907;28;20043;-63
2023/06/25 14:20:38;;;;;;;7.07;4.10;;;;;;;31.75;23.24;100163.31;5073704;28;20048;-63
2023/06/25 14:23:04;;;;;;;4.63;3.42;;;;;;;31.93;23.36;100156.78;5074017;28;20032;-63
2023/06/25 14:25:29;;;;;;;7.20;4.10;;;;;;;32.03;22.47;100155.72;5073761;28;20036;-64
2023/06/25 14:27:56;;;;;;;9.77;4.33;;;;;;;31.93;22.85;100156.78;5073758;28;20040;-64
2023/06/25 14:30:21;;;;;;;6.82;4.25;;;;;;;32.13;22.49;100147.94;5073568;28;20482;-63
2023/06/25 14:32:47;;;;;;;6.63;3.85;;;;;;;32.10;23.69;100140.34;5073627;28;20039;-63
2023/06/25 14:35:14;;;;;;;6.90;4.07;;;;;;;32.23;23.59;100146.03;5073588;28;20043;-63
2023/06/25 14:37:39;;;;;;;8.98;4.80;;;;;;;32.16;22.79;100140.19;5073662;28;20034;-63
2023/06/25 14:40:05;;;;;;;6.37;3.60;;;;;;;32.23;22.90;100135.03;5073299;28;20131;-63
2023/06/25 14:42:31;;;;;;;7.32;3.92;;;;;;;32.25;23.07;100128.06;5073505;28;20032;-64
2023/06/25 14:44:58;;;;;;;7.10;4.00;;;;;;;32.10;23.17;100118.31;5073528;28;20056;-64
2023/06/25 14:47:23;;;;;;;;;;;;;;;32.14;23.38;100115.69;5073863;28;20115;-65
2023/06/25 14:49:49;;;;;;;5.93;3.73;;;;;;;32.05;23.17;100118.44;5073021;28;20437;-53
2023/06/25 14:52:15;;;;;;;7.17;3.87;;;;;;;32.13;23.57;100117.66;5073198;28;20390;-54
2023/06/25 14:54:40;;;;;;;8.10;4.20;;;;;;;31.94;22.88;100119.84;5073281;28;20489;-52
2023/06/25 14:57:06;;;;;;;7.28;3.85;;;;;;;31.50;23.43;100120.78;5073055;28;20282;-55
2023/06/25 14:59:31;;;;;;;5.65;3.97;;;;;;;31.60;25.65;100113.06;5072959;28;20539;-54
2023/06/25 15:01:56;;;;;;;6.43;4.43;;;;;;;31.54;23.78;100105.25;5073163;28;20671;-60
2023/06/25 15:04:22;;;;;;;7.80;4.33;;;;;;;31.52;23.56;100102.00;5072919;28;20040;-60
2023/06/25 15:06:48;;;;;;;7.67;4.07;;;;;;;31.57;25.86;100104.63;5072199;28;20516;-60
2023/06/25 15:09:13;;;;;;;6.47;3.97;;;;;;;31.64;25.22;100106.94;5073009;28;20501;-61
2023/06/25 15:11:39;;;;;;;5.57;3.60;;;;;;;31.72;25.18;100106.16;5072820;28;20037;-61
2023/06/25 15:14:04;;;;;;;7.32;4.15;;;;;;;31.48;25.23;100093.56;5072878;28;20112;-61
2023/06/25 15:16:29;;;;;;;5.82;3.85;;;;;;;31.45;25.08;100096.16;5072646;28;20044;-61
2023/06/25 15:18:55;;;;;;;6.50;3.78;;;;;;;31.45;24.63;100091.47;5072518;28;20079;-61
2023/06/25 15:21:20;;;;;;;7.72;4.00;;;;;;;31.68;23.81;100096.88;5072815;28;20028;-60
2023/06/25 15:23:46;;;;;;;6.53;4.10;;;;;;;31.56;26.00;100092.81;5072796;28;20111;-61
2023/06/25 15:26:12;;;;;;;6.50;4.00;;;;;;;31.31;25.24;100088.00;5072649;28;20044;-60
2023/06/25 15:28:38;;;;;;;6.28;4.45;;;;;;;31.34;25.02;100087.34;5072412;28;20033;-60
2023/06/25 15:31:04;;;;;;;6.25;4.22;;;;;;;31.26;23.83;100079.84;5072422;28;20444;-62
2023/06/25 15:33:29;;;;;;;8.20;4.97;;;;;;;31.35;23.45;100083.47;5072664;28;20036;-61
2023/06/25 15:35:55;;;;;;;7.23;4.33;;;;;;;31.30;24.28;100075.38;5072485;28;20062;-61
2023/06/25 15:38:20;;;;;;;8.00;4.32;;;;;;;31.38;24.08;100080.09;5072328;28;20040;-61
2023/06/25 15:40:46;;;;;;;5.90;3.90;;;;;;;31.33;24.48;100075.53;5072354;28;20054;-60
2023/06/25 15:43:12;;;;;;;7.70;4.77;;;;;;;31.30;24.13;100075.38;5072403;28;20063;-61